createdAt,value
2018-02-06T00:00:20.620Z,12.60
2018-02-06T00:02:51.470Z,11.80
2018-02-06T00:05:22.324Z,12.87
2018-02-06T00:07:53.120Z,13.20
2018-02-06T00:10:23.908Z,12.73
2018-02-06T00:12:54.672Z,12.93
2018-02-06T00:15:25.461Z,13.07
2018-02-06T00:17:56.208Z,14.13
2018-02-06T00:20:27.042Z,13.23
2018-02-06T00:22:57.881Z,14.20
2018-02-06T00:25:28.656Z,14.30
2018-02-06T00:27:59.528Z,14.40
2018-02-06T00:30:30.310Z,14.70
2018-02-06T00:33:01.068Z,14.83
2018-02-06T00:35:31.852Z,16.50
2018-02-06T00:38:02.607Z,14.80
2018-02-06T00:40:33.368Z,14.80
2018-02-06T00:43:04.164Z,15.70
2018-02-06T00:45:35.056Z,17.03
2018-02-06T00:48:05.840Z,17.43
2018-02-06T00:50:36.613Z,16.30
2018-02-06T00:53:07.480Z,17.50
2018-02-06T00:55:38.259Z,17.20
2018-02-06T00:58:09.014Z,18.17
2018-02-06T01:00:39.773Z,16.53
2018-02-06T01:03:10.644Z,16.90
2018-02-06T01:05:41.413Z,17.60
2018-02-06T01:08:12.165Z,16.77
2018-02-06T01:10:42.920Z,17.40
2018-02-06T01:13:13.675Z,16.43
2018-02-06T01:15:44.491Z,18.57
2018-02-06T01:18:15.228Z,15.70
2018-02-06T01:20:45.959Z,15.53
2018-02-06T01:23:16.688Z,15.37
2018-02-06T01:25:47.552Z,17.50
2018-02-06T01:28:18.308Z,16.13
2018-02-06T01:30:49.332Z,15.13
2018-02-06T01:33:20.068Z,16.58
2018-02-06T01:35:50.813Z,15.87
2018-02-06T01:38:21.576Z,16.90
2018-02-06T01:40:52.351Z,16.80
2018-02-06T01:43:23.195Z,16.47
2018-02-06T01:45:53.943Z,16.00
2018-02-06T01:48:24.707Z,17.40
2018-02-06T01:50:55.484Z,17.07
2018-02-06T01:53:26.258Z,17.53
2018-02-06T01:55:56.984Z,15.77
2018-02-06T01:58:27.933Z,16.50
2018-02-06T02:00:58.720Z,15.65
2018-02-06T02:03:29.470Z,17.17
2018-02-06T02:06:00.202Z,17.33
2018-02-06T02:08:30.983Z,16.50
2018-02-06T02:11:01.732Z,16.27
2018-02-06T02:13:32.500Z,16.67
2018-02-06T02:16:03.338Z,16.93
2018-02-06T02:18:34.122Z,18.97
2018-02-06T02:21:04.876Z,15.70
2018-02-06T02:23:35.693Z,15.70
2018-02-06T02:26:06.456Z,18.50
2018-02-06T02:28:37.232Z,15.20
2018-02-06T02:31:07.985Z,16.33
2018-02-06T02:33:38.755Z,16.03
2018-02-06T02:36:09.505Z,18.10
2018-02-06T02:38:40.277Z,17.03
2018-02-06T02:41:11.059Z,16.03
2018-02-06T04:39:20.500Z,14.70
2018-02-06T04:41:51.239Z,14.17
2018-02-06T04:44:22.025Z,15.00
2018-02-06T04:46:52.792Z,13.80
2018-02-06T04:49:23.573Z,13.93
2018-02-06T04:51:54.331Z,14.70
2018-02-06T04:54:25.123Z,15.97
2018-02-06T04:56:55.873Z,12.50
2018-02-06T04:59:26.632Z,15.17
2018-02-06T05:01:57.392Z,14.23
2018-02-06T05:04:28.209Z,15.67
2018-02-06T05:06:58.976Z,13.90
2018-02-06T05:09:29.745Z,15.90
2018-02-06T05:12:00.542Z,13.57
2018-02-06T05:14:31.328Z,14.80
2018-02-06T05:17:02.116Z,14.77
2018-02-06T05:19:32.904Z,15.77
2018-02-06T05:22:03.659Z,16.17
2018-02-06T05:24:34.429Z,15.87
2018-02-06T05:27:05.171Z,15.40
2018-02-06T05:29:35.947Z,14.90
2018-02-06T05:32:06.703Z,14.53
2018-02-06T05:34:37.504Z,14.33
2018-02-06T05:37:08.330Z,14.80
2018-02-06T05:39:39.112Z,13.43
2018-02-06T05:42:09.862Z,13.77
2018-02-06T05:44:40.631Z,14.30
2018-02-06T05:47:11.388Z,13.87
2018-02-06T05:49:42.157Z,14.87
2018-02-06T05:52:12.903Z,14.73
2018-02-06T05:54:43.662Z,15.27
2018-02-06T05:57:14.420Z,14.27
2018-02-06T05:59:45.196Z,13.77
2018-02-06T06:02:15.940Z,15.03
2018-02-06T06:04:46.727Z,13.30
2018-02-06T06:07:17.508Z,13.57
2018-02-06T06:09:48.271Z,13.47
2018-02-06T06:12:19.039Z,15.37
2018-02-06T06:14:50.864Z,14.20
2018-02-06T06:17:21.624Z,14.90
2018-02-06T06:19:52.419Z,15.23
2018-02-06T06:22:23.177Z,14.93
2018-02-06T06:24:53.955Z,13.40
2018-02-06T06:27:24.735Z,14.70
2018-02-06T06:29:55.505Z,16.70
2018-02-06T06:32:26.289Z,17.13
2018-02-06T06:34:57.049Z,16.03
2018-02-06T06:37:27.803Z,15.10
2018-02-06T06:39:58.587Z,14.50
2018-02-06T06:42:29.364Z,15.77
2018-02-06T06:45:00.128Z,16.40
2018-02-06T06:47:39.912Z,15.53
2018-02-06T06:50:10.701Z,14.00
2018-02-06T06:52:41.460Z,16.37
2018-02-06T06:55:12.232Z,16.27
2018-02-06T06:57:42.993Z,15.80
2018-02-06T07:00:13.788Z,16.77
2018-02-06T07:02:44.569Z,15.77
2018-02-06T07:05:16.388Z,15.60
2018-02-06T07:07:47.123Z,16.40
2018-02-06T07:10:17.884Z,14.47
2018-02-06T07:12:48.644Z,16.97
2018-02-06T07:15:19.380Z,16.70
2018-02-06T07:17:50.123Z,16.80
2018-02-06T07:20:20.872Z,17.03
2018-02-06T07:22:51.625Z,16.50
2018-02-06T07:25:22.368Z,16.00
2018-02-06T07:27:53.124Z,17.40
2018-02-06T07:30:23.872Z,16.90
2018-02-06T07:32:54.645Z,18.37
2018-02-06T07:35:25.383Z,17.00
2018-02-06T07:37:56.124Z,17.37
2018-02-06T07:40:26.849Z,18.17
2018-02-06T07:42:57.652Z,15.60
2018-02-06T07:45:28.380Z,16.57
2018-02-06T07:47:59.131Z,16.40
2018-02-06T07:50:30.900Z,16.70
2018-02-06T07:53:01.656Z,15.85
2018-02-06T07:55:32.597Z,16.30
2018-02-06T07:58:03.713Z,15.50
2018-02-06T08:00:34.607Z,15.85
2018-02-06T08:03:05.433Z,16.27
2018-02-06T08:05:36.159Z,16.07
2018-02-06T08:08:06.914Z,16.40
2018-02-06T08:10:37.676Z,15.80
2018-02-06T08:13:08.433Z,16.67
2018-02-06T08:15:39.188Z,16.50
2018-02-06T08:18:09.957Z,15.93
2018-02-06T08:20:40.695Z,13.83
2018-02-06T08:23:11.533Z,16.20
2018-02-06T08:25:42.229Z,16.37
2018-02-06T08:28:13.017Z,15.07
2018-02-06T08:30:43.933Z,16.40
2018-02-06T08:33:14.733Z,14.80
2018-02-06T08:35:45.492Z,13.93
2018-02-06T08:38:16.277Z,13.27
2018-02-06T08:40:47.034Z,12.00
2018-02-06T08:43:17.808Z,12.97
2018-02-06T08:45:48.583Z,11.20
2018-02-06T08:48:19.425Z,10.00
2018-02-06T08:50:50.163Z,12.53
2018-02-06T08:53:22.877Z,10.53
2018-02-06T08:55:53.668Z,11.38
2018-02-06T08:58:25.256Z,11.50
2018-02-06T09:00:56.010Z,10.83
2018-02-06T09:03:26.749Z,9.80
2018-02-06T09:06:12.436Z,10.73
2018-02-06T09:08:43.207Z,10.93
2018-02-06T09:11:13.983Z,10.27
2018-02-06T09:13:44.755Z,15.67
2018-02-06T09:16:15.525Z,10.97
2018-02-06T09:18:46.273Z,10.80
2018-02-06T09:21:17.034Z,10.30
2018-02-06T09:23:47.797Z,8.93
2018-02-06T09:26:18.573Z,9.93
2018-02-06T09:28:49.337Z,9.93
2018-02-06T09:31:20.104Z,10.27
2018-02-06T09:33:50.848Z,10.10
2018-02-06T09:36:21.641Z,8.77
2018-02-06T09:38:52.424Z,9.10
2018-02-06T09:41:23.218Z,10.23
2018-02-06T09:43:53.986Z,10.00
2018-02-06T09:46:24.784Z,11.40
2018-02-06T09:48:55.571Z,10.63
2018-02-06T09:51:26.351Z,11.87
2018-02-06T09:53:57.116Z,9.93
2018-02-06T09:56:27.891Z,10.37
2018-02-06T09:58:58.646Z,9.80
2018-02-06T10:01:29.472Z,10.57
2018-02-06T10:04:00.238Z,10.57
2018-02-06T10:06:31.003Z,12.83
2018-02-06T10:09:01.786Z,10.90
2018-02-06T10:11:32.580Z,9.53
2018-02-06T10:14:03.350Z,10.47
2018-02-06T10:16:34.138Z,10.60
2018-02-06T10:19:04.916Z,11.97
2018-02-06T10:21:35.684Z,11.47
2018-02-06T10:24:06.439Z,10.83
2018-02-06T10:26:37.220Z,10.70
2018-02-06T10:29:15.012Z,12.07
2018-02-06T10:31:45.797Z,11.27
2018-02-06T10:34:16.564Z,9.37
2018-02-06T10:36:47.368Z,10.80
2018-02-06T10:39:18.129Z,10.40
2018-02-06T10:41:48.900Z,10.20
2018-02-06T10:44:19.640Z,9.37
2018-02-06T10:46:50.468Z,11.50
2018-02-06T10:49:21.260Z,10.40
2018-02-06T10:51:52.024Z,9.97
2018-02-06T10:54:22.836Z,9.90
2018-02-06T10:56:53.647Z,10.60
2018-02-06T10:59:24.402Z,9.67
2018-02-06T11:01:55.228Z,10.27
2018-02-06T11:04:26.003Z,13.97
2018-02-06T11:06:56.764Z,10.90
2018-02-06T11:09:27.528Z,10.43
2018-02-06T11:11:58.300Z,12.03
2018-02-06T11:14:29.059Z,11.00
2018-02-06T11:16:59.864Z,10.93
2018-02-06T11:19:30.634Z,11.47
2018-02-06T11:22:01.432Z,11.57
2018-02-06T11:24:32.238Z,11.20
2018-02-06T11:27:03.004Z,10.37
2018-02-06T11:29:33.756Z,10.47
2018-02-06T11:32:05.669Z,9.93
2018-02-06T11:34:36.421Z,10.57
2018-02-06T11:37:07.224Z,10.87
2018-02-06T11:39:37.996Z,11.23
2018-02-06T11:42:08.812Z,11.47
2018-02-06T11:44:39.686Z,10.50
2018-02-06T11:47:10.473Z,10.67
2018-02-06T11:49:41.284Z,11.87
2018-02-06T11:52:12.095Z,11.03
2018-02-06T11:54:42.862Z,12.00
2018-02-06T11:57:13.643Z,12.47
2018-02-06T11:59:44.424Z,12.27
2018-02-06T12:02:15.220Z,10.50
2018-02-06T12:04:46.040Z,12.00
2018-02-06T12:07:16.823Z,9.70
2018-02-06T12:09:47.576Z,10.20
2018-02-06T12:12:18.368Z,11.97
2018-02-06T12:14:49.166Z,11.37
2018-02-06T12:17:19.988Z,10.90
2018-02-06T12:19:50.765Z,11.10
2018-02-06T12:22:21.577Z,9.90
2018-02-06T12:24:52.342Z,11.00
2018-02-06T12:27:23.096Z,9.93
2018-02-06T12:29:53.828Z,11.40
2018-02-06T12:32:24.591Z,12.33
2018-02-06T12:34:55.357Z,10.20
2018-02-06T12:37:26.137Z,10.60
2018-02-06T12:39:56.883Z,10.10
2018-02-06T12:42:27.634Z,11.20
2018-02-06T12:44:58.377Z,12.37
2018-02-06T12:47:29.148Z,10.77
2018-02-06T12:49:59.900Z,11.03
2018-02-06T12:52:30.654Z,10.50
2018-02-06T12:55:01.409Z,11.10
2018-02-06T12:57:32.197Z,10.80
2018-02-06T13:00:02.976Z,10.87
2018-02-06T13:02:33.759Z,10.07
2018-02-06T13:05:04.519Z,11.70
2018-02-06T13:07:35.352Z,10.17
2018-02-06T13:10:06.125Z,11.30
2018-02-06T13:12:36.936Z,10.53
2018-02-06T13:15:07.696Z,10.13
2018-02-06T13:17:38.491Z,10.60
2018-02-06T13:20:09.264Z,11.27
2018-02-06T13:22:40.056Z,10.53
2018-02-06T13:25:10.811Z,11.80
2018-02-06T13:27:43.672Z,10.87
2018-02-06T13:30:14.437Z,11.25
2018-02-06T13:32:45.275Z,9.90
2018-02-06T13:35:16.069Z,11.23
2018-02-06T13:37:46.867Z,10.23
2018-02-06T13:40:17.642Z,11.47
2018-02-06T13:42:55.217Z,10.90
2018-02-06T13:45:25.976Z,10.95
2018-02-06T13:47:56.755Z,10.50
2018-02-06T13:50:27.531Z,11.33
2018-02-06T13:52:58.341Z,11.80
2018-02-06T13:55:29.101Z,12.07
2018-02-06T13:57:59.944Z,10.47
2018-02-06T14:00:30.696Z,11.93
2018-02-06T14:03:01.520Z,11.43
2018-02-06T14:05:32.300Z,10.30
2018-02-06T14:08:03.097Z,9.90
2018-02-06T14:10:33.936Z,12.27
2018-02-06T14:13:04.743Z,11.10
2018-02-06T14:15:35.594Z,10.30
2018-02-06T14:18:06.358Z,10.60
2018-02-06T14:20:37.136Z,11.07
2018-02-06T14:23:07.928Z,10.00
2018-02-06T14:25:38.711Z,9.87
2018-02-06T14:28:09.483Z,11.83
2018-02-06T14:30:40.249Z,11.70
2018-02-06T14:33:11.038Z,10.50
2018-02-06T14:35:41.817Z,12.30
2018-02-06T14:38:15.581Z,11.00
2018-02-06T14:40:46.365Z,11.98
2018-02-06T14:43:17.125Z,10.90
2018-02-06T14:45:47.908Z,11.73
2018-02-06T14:48:18.666Z,10.60
2018-02-06T14:50:49.487Z,12.77
2018-02-06T14:53:20.308Z,11.50
2018-02-06T14:55:51.092Z,12.23
2018-02-06T14:58:21.858Z,12.40
2018-02-06T15:00:52.663Z,12.10
2018-02-06T15:03:23.419Z,11.73
2018-02-06T15:05:54.212Z,11.30
2018-02-06T15:08:24.976Z,10.67
2018-02-06T15:10:55.735Z,12.10
2018-02-06T15:13:26.474Z,11.73
2018-02-06T15:15:57.222Z,11.77
2018-02-06T15:18:27.973Z,10.97
2018-02-06T15:20:58.711Z,11.33
2018-02-06T15:23:29.452Z,11.67
2018-02-06T15:26:00.316Z,11.17
2018-02-06T15:28:31.128Z,11.93
2018-02-06T15:31:01.885Z,11.17
2018-02-06T15:33:32.650Z,11.67
2018-02-06T15:36:03.455Z,10.90
2018-02-06T15:38:34.233Z,11.17
2018-02-06T15:41:05.013Z,10.60
2018-02-06T15:43:35.781Z,12.33
2018-02-06T15:46:06.568Z,11.40
2018-02-06T15:48:37.342Z,12.87
2018-02-06T15:51:08.122Z,13.00
2018-02-06T15:53:38.861Z,11.80
2018-02-06T15:56:09.660Z,12.57
2018-02-06T15:58:40.420Z,11.63
2018-02-06T16:01:12.269Z,12.70
2018-02-06T16:03:43.021Z,11.85
2018-02-06T16:06:13.823Z,11.10
2018-02-06T16:08:44.604Z,12.07
2018-02-06T16:11:15.355Z,12.77
2018-02-06T16:13:46.085Z,11.10
2018-02-06T16:16:16.896Z,11.93
2018-02-06T16:18:47.650Z,11.47
2018-02-06T16:21:18.416Z,10.60
2018-02-06T16:23:49.151Z,12.17
2018-02-06T16:26:19.944Z,12.57
2018-02-06T16:28:50.704Z,12.20
2018-02-06T16:31:21.515Z,12.20
2018-02-06T16:33:52.252Z,13.67
2018-02-06T16:36:23.012Z,13.13
2018-02-06T16:38:53.805Z,13.20
2018-02-06T16:41:24.598Z,13.80
2018-02-06T16:43:55.343Z,14.67
2018-02-06T16:46:26.120Z,17.00
2018-02-06T16:48:56.858Z,14.90
2018-02-06T16:51:27.654Z,15.80
2018-02-06T16:53:58.415Z,17.13
2018-02-06T16:56:29.209Z,16.10
2018-02-06T16:58:59.951Z,15.07
2018-02-06T17:01:30.736Z,16.53
2018-02-06T17:04:01.548Z,17.40
2018-02-06T17:06:32.324Z,17.33
2018-02-06T17:09:03.112Z,17.43
2018-02-06T17:11:33.894Z,17.10
2018-02-06T17:14:04.656Z,17.37
2018-02-06T17:16:35.425Z,17.83
2018-02-06T17:19:06.167Z,17.00
2018-02-06T17:21:36.985Z,17.90
2018-02-06T17:24:07.748Z,17.50
2018-02-06T17:26:38.535Z,17.57
2018-02-06T17:29:09.284Z,16.80
2018-02-06T17:31:40.084Z,17.10
2018-02-06T17:34:10.860Z,17.87
2018-02-06T17:36:41.628Z,18.57
2018-02-06T17:39:12.394Z,19.27
2018-02-06T17:41:44.240Z,19.10
2018-02-06T17:44:15.056Z,18.85
2018-02-06T17:46:45.899Z,17.63
2018-02-06T17:49:16.770Z,19.40
2018-02-06T17:51:47.555Z,19.00
2018-02-06T17:54:18.305Z,18.33
2018-02-06T17:56:49.079Z,18.13
2018-02-06T17:59:19.851Z,17.63
2018-02-06T18:01:50.632Z,18.87
2018-02-06T18:04:21.408Z,18.70
2018-02-06T18:06:52.220Z,19.07
2018-02-06T18:09:22.993Z,17.90
2018-02-06T18:11:53.785Z,18.93
2018-02-06T18:14:24.538Z,18.27
2018-02-06T18:16:55.350Z,19.50
2018-02-06T18:19:26.088Z,17.60
2018-02-06T18:21:56.894Z,17.97
2018-02-06T18:24:27.711Z,17.70
2018-02-06T18:26:58.478Z,17.53
2018-02-06T18:29:29.220Z,19.80
2018-02-06T18:31:59.974Z,18.57
2018-02-06T18:34:30.724Z,18.63
2018-02-06T18:37:01.520Z,19.73
2018-02-06T18:39:32.295Z,18.77
2018-02-06T18:42:03.040Z,19.63
2018-02-06T18:44:33.764Z,20.07
2018-02-06T18:47:04.567Z,18.17
2018-02-06T18:49:35.332Z,19.43
2018-02-06T18:52:06.089Z,17.13
2018-02-06T18:54:36.891Z,18.90
2018-02-06T18:57:07.679Z,19.50
2018-02-06T18:59:38.404Z,21.03
2018-02-06T19:02:09.180Z,19.07
2018-02-06T19:04:39.918Z,18.77
2018-02-06T19:07:10.715Z,19.70
2018-02-06T19:09:41.460Z,17.77
2018-02-06T19:12:12.213Z,18.10
2018-02-06T19:14:42.986Z,19.77
2018-02-06T19:17:13.748Z,19.50
2018-02-06T19:19:44.538Z,20.00
2018-02-06T19:22:15.317Z,19.50
2018-02-06T19:24:46.091Z,19.50
2018-02-06T19:27:16.928Z,18.53
2018-02-06T19:29:47.664Z,19.50
2018-02-06T19:32:18.436Z,19.17
2018-02-06T19:34:49.225Z,20.53
2018-02-06T19:37:20.101Z,20.37
2018-02-06T19:39:50.842Z,20.77
2018-02-06T19:42:21.639Z,19.67
2018-02-06T19:44:52.389Z,19.60
2018-02-06T19:47:23.155Z,18.67
2018-02-06T19:49:53.948Z,18.73
2018-02-06T19:52:24.786Z,19.67
2018-02-06T19:54:55.528Z,19.57
2018-02-06T19:57:26.332Z,19.90
2018-02-06T19:59:57.044Z,21.57
2018-02-06T20:02:27.846Z,19.17
2018-02-06T20:04:58.674Z,19.87
2018-02-06T20:07:29.572Z,21.50
2018-02-06T20:10:00.324Z,19.60
2018-02-06T20:12:31.175Z,18.73
2018-02-06T20:15:01.921Z,19.43
2018-02-06T20:17:32.772Z,20.17
2018-02-06T20:20:03.524Z,19.30
2018-02-06T20:22:34.322Z,21.37
2018-02-06T20:25:05.112Z,19.23
2018-02-06T20:27:35.931Z,20.13
2018-02-06T20:30:06.739Z,19.40
2018-02-06T20:32:37.482Z,21.90
2018-02-06T20:35:08.266Z,21.30
2018-02-06T20:37:39.095Z,20.80
2018-02-06T20:40:09.895Z,20.57
2018-02-06T20:42:40.674Z,18.70
2018-02-06T20:45:11.435Z,19.80
2018-02-06T20:47:42.188Z,19.07
2018-02-06T20:50:12.997Z,19.30
2018-02-06T20:52:43.856Z,19.30
2018-02-06T20:55:14.632Z,19.73
2018-02-06T20:57:45.386Z,22.50
2018-02-06T21:00:16.213Z,18.80
2018-02-06T21:02:46.965Z,20.57
2018-02-06T21:05:17.715Z,18.63
2018-02-06T21:07:48.519Z,20.07
2018-02-06T21:10:19.272Z,18.23
2018-02-06T21:12:50.025Z,21.17
2018-02-06T21:15:20.760Z,19.00
2018-02-06T21:17:51.544Z,20.83
2018-02-06T21:20:22.301Z,20.43
2018-02-06T21:22:53.056Z,21.03
2018-02-06T21:25:23.804Z,19.50
2018-02-06T21:27:54.625Z,21.40
2018-02-06T21:30:25.376Z,19.80
2018-02-06T21:32:56.152Z,23.10
2018-02-06T21:35:26.914Z,19.67
2018-02-06T21:37:57.729Z,20.70
2018-02-06T21:40:28.512Z,21.17
2018-02-06T21:42:59.252Z,21.37
2018-02-06T21:45:29.996Z,20.70
2018-02-06T21:48:00.800Z,20.50
2018-02-06T21:50:31.562Z,21.60
2018-02-06T21:53:02.352Z,20.63
2018-02-06T21:55:33.151Z,22.07
2018-02-06T21:58:03.974Z,22.07
2018-02-06T22:00:34.707Z,20.43
2018-02-06T22:03:05.495Z,21.70
2018-02-06T22:05:36.245Z,20.23
2018-02-06T22:08:07.066Z,20.97
2018-02-06T22:10:37.829Z,19.10
2018-02-06T22:13:08.651Z,20.80
2018-02-06T22:15:39.435Z,21.10
2018-02-06T22:18:10.241Z,19.43
2018-02-06T22:20:41.012Z,19.60
2018-02-06T22:23:11.821Z,19.20
2018-02-06T22:25:42.589Z,21.43
2018-02-06T22:28:13.347Z,20.27
2018-02-06T22:30:44.092Z,20.40
2018-02-06T22:33:14.855Z,21.60
2018-02-06T22:35:45.639Z,20.10
2018-02-06T22:38:16.404Z,19.90
2018-02-06T22:40:47.163Z,20.70
2018-02-06T22:43:20.756Z,20.37
2018-02-06T22:45:51.854Z,23.10
2018-02-06T22:48:22.632Z,19.60
2018-02-06T22:50:53.372Z,19.70
2018-02-06T22:53:24.128Z,18.70
2018-02-06T22:55:54.892Z,21.80
2018-02-06T22:58:25.674Z,20.40
2018-02-06T23:00:56.409Z,20.03
2018-02-06T23:03:27.177Z,18.73
2018-02-06T23:05:57.939Z,21.33
2018-02-06T23:08:28.704Z,20.90
2018-02-06T23:10:59.529Z,20.53
2018-02-06T23:13:30.321Z,19.87
2018-02-06T23:16:01.064Z,19.97
2018-02-06T23:18:31.847Z,20.23
2018-02-06T23:21:02.588Z,18.77
2018-02-06T23:23:33.336Z,21.03
2018-02-06T23:26:04.088Z,20.83
2018-02-06T23:28:35.120Z,21.50
2018-02-06T23:31:05.881Z,20.27
2018-02-06T23:33:36.644Z,20.00
2018-02-06T23:36:07.381Z,18.37
2018-02-06T23:38:38.144Z,21.53
2018-02-06T23:41:08.915Z,19.23
2018-02-06T23:43:39.725Z,18.37
2018-02-06T23:46:10.465Z,20.30
2018-02-06T23:48:41.334Z,19.57
2018-02-06T23:51:12.448Z,20.77
2018-02-06T23:53:43.282Z,19.65
2018-02-06T23:56:14.023Z,19.30
2018-02-06T23:58:44.764Z,22.13
